Time;durP1;ratioP1;P1;durP2;ratioP2;P2;SDS_P1;SDS_P2;PMS_P1;PMS_P2;Temp;Humidity;BMP_temperature;BMP_pressure;BME280_temperature;BME280_humidity;BME280_pressure;Samples;Min_cycle;Max_cycle;Signal;HPM_P1;HPM_P2
2021/03/24 00:00:52;;;;;;;11.57;7.40;;;7.90;99.90;;;;;;5019202;28;20037;-76
2021/03/24 00:03:18;;;;;;;18.05;7.53;;;7.80;99.90;;;;;;5029060;28;20057;-75
2021/03/24 00:05:53;;;;;;;10.38;7.18;;;7.80;99.90;;;;;;5035666;28;20022;-77
2021/03/24 00:08:23;;;;;;;11.25;7.03;;;7.70;99.90;;;;;;5030224;28;20026;-76
2021/03/24 00:10:50;;;;;;;9.43;6.68;;;7.60;99.90;;;;;;5033210;28;20013;-76
2021/03/24 00:13:17;;;;;;;13.98;8.30;;;7.60;99.90;;;;;;5026221;28;20026;-75
2021/03/24 00:15:43;;;;;;;12.07;7.68;;;7.60;99.90;;;;;;5040256;28;20029;-76
2021/03/24 00:18:10;;;;;;;14.27;7.97;;;7.60;99.90;;;;;;5019970;28;20053;-75
2021/03/24 00:20:38;;;;;;;12.85;7.22;;;7.50;99.90;;;;;;5028874;28;20026;-74
2021/03/24 00:23:05;;;;;;;14.10;6.35;;;7.60;99.90;;;;;;5032784;28;20022;-74
2021/03/24 00:25:31;;;;;;;13.65;7.45;;;7.50;99.90;;;;;;5034076;28;20472;-76
2021/03/24 00:27:57;;;;;;;10.00;6.40;;;7.60;99.90;;;;;;5023735;28;20029;-75
2021/03/24 00:30:27;;;;;;;11.98;7.07;;;7.60;99.90;;;;;;5032480;28;20025;-75
2021/03/24 00:32:53;;;;;;;10.70;6.53;;;7.70;99.90;;;;;;5024942;28;20030;-76
2021/03/24 00:35:20;;;;;;;10.48;6.90;;;7.60;99.90;;;;;;5033810;28;20045;-76
2021/03/24 00:37:45;;;;;;;12.95;7.43;;;7.70;99.90;;;;;;5030298;28;20040;-75
2021/03/24 00:40:16;;;;;;;14.80;7.70;;;7.60;99.90;;;;;;5022041;28;20025;-75
2021/03/24 00:42:42;;;;;;;11.85;6.15;;;7.60;99.90;;;;;;5027954;28;20040;-76
2021/03/24 00:45:09;;;;;;;13.63;7.47;;;7.70;99.90;;;;;;5030651;28;20018;-75
2021/03/24 00:47:35;;;;;;;12.48;7.43;;;7.70;99.90;;;;;;5028599;28;20093;-76
2021/03/24 00:50:02;;;;;;;8.57;5.97;;;7.70;99.90;;;;;;5017301;28;20075;-77
2021/03/24 00:52:28;;;;;;;12.45;6.10;;;7.70;99.90;;;;;;5026664;28;20049;-75
2021/03/24 00:54:54;;;;;;;10.32;6.53;;;7.60;99.90;;;;;;5024441;28;20048;-75
2021/03/24 00:57:27;;;;;;;9.57;6.50;;;7.70;99.90;;;;;;5012539;28;20509;-75
2021/03/24 00:59:53;;;;;;;11.27;6.18;;;7.60;99.90;;;;;;5024362;28;20038;-75
2021/03/24 01:02:19;;;;;;;12.85;5.35;;;7.70;99.90;;;;;;5014747;28;20067;-75
2021/03/24 01:04:44;;;;;;;12.25;7.45;;;7.80;99.90;;;;;;5007091;28;20034;-74
2021/03/24 01:07:11;;;;;;;11.77;6.63;;;7.80;99.90;;;;;;5040984;28;20021;-76
2021/03/24 01:09:37;;;;;;;7.60;5.45;;;7.90;99.90;;;;;;5027775;28;20475;-74
2021/03/24 01:12:04;;;;;;;12.73;6.38;;;7.90;99.90;;;;;;5022877;28;20032;-75
2021/03/24 01:14:29;;;;;;;43.22;13.27;;;7.90;99.90;;;;;;5016491;28;20045;-76
2021/03/24 01:16:55;;;;;;;11.02;5.82;;;7.90;99.90;;;;;;5035455;28;20049;-75
2021/03/24 01:19:21;;;;;;;8.95;5.85;;;7.80;99.90;;;;;;5022391;28;20038;-75
2021/03/24 01:21:46;;;;;;;10.80;5.60;;;7.80;99.90;;;;;;4999444;28;20029;-76
2021/03/24 01:24:12;;;;;;;12.98;6.32;;;7.80;99.90;;;;;;5016812;28;20030;-74
2021/03/24 01:26:38;;;;;;;10.60;5.10;;;7.80;99.90;;;;;;5008832;28;20041;-76
2021/03/24 01:29:05;;;;;;;10.88;6.55;;;7.80;99.90;;;;;;5029951;28;20060;-76
2021/03/24 01:31:32;;;;;;;9.25;6.03;;;7.90;99.90;;;;;;5023922;28;20064;-75
2021/03/24 01:33:59;;;;;;;9.10;6.10;;;7.80;99.90;;;;;;5008169;28;20093;-75
2021/03/24 01:36:25;;;;;;;8.93;5.28;;;7.70;99.90;;;;;;5020983;28;20030;-76
2021/03/24 01:38:52;;;;;;;8.48;5.15;;;7.70;99.90;;;;;;5035669;28;20028;-75
2021/03/24 01:41:18;;;;;;;9.23;5.32;;;7.70;99.90;;;;;;5024142;28;20148;-75
2021/03/24 01:43:44;;;;;;;9.77;4.47;;;7.70;99.90;;;;;;5028167;28;20034;-75
2021/03/24 01:46:19;;;;;;;12.00;5.03;;;7.70;99.90;;;;;;5027570;28;20026;-76
2021/03/24 01:49:13;;;;;;;10.38;4.80;;;7.70;99.90;;;;;;5015932;28;20030;-75
2021/03/24 01:51:55;;;;;;;8.40;5.53;;;7.70;99.90;;;;;;5011859;28;20038;-75
2021/03/24 01:54:29;;;;;;;7.32;5.15;;;7.80;99.90;;;;;;5024935;28;20032;-74
2021/03/24 01:57:02;;;;;;;7.60;4.95;;;7.70;99.90;;;;;;5019769;28;20038;-75
2021/03/24 01:59:28;;;;;;;11.15;4.70;;;7.70;99.90;;;;;;5029627;28;20038;-77
2021/03/24 02:01:56;;;;;;;11.00;4.68;;;7.70;99.90;;;;;;5015525;28;20053;-73
2021/03/24 02:04:22;;;;;;;8.40;5.78;;;7.60;99.90;;;;;;5023943;28;20021;-74
2021/03/24 02:07:06;;;;;;;16.05;5.47;;;7.50;99.90;;;;;;5030662;28;20083;-74
2021/03/24 02:09:37;;;;;;;10.32;5.00;;;7.60;99.90;;;;;;5031980;28;20048;-74
2021/03/24 02:12:36;;;;;;;9.07;5.40;;;7.60;99.90;;;;;;5029103;28;20022;-75
2021/03/24 02:15:19;;;;;;;8.15;4.57;;;7.70;99.90;;;;;;5002608;28;20026;-74
2021/03/24 02:17:47;;;;;;;7.90;5.07;;;7.80;99.90;;;;;;5033580;28;20037;-74
2021/03/24 02:20:33;;;;;;;7.35;5.18;;;7.80;99.90;;;;;;5028269;28;20084;-74
2021/03/24 02:23:07;;;;;;;8.38;4.93;;;7.80;99.90;;;;;;5015396;28;20700;-75
2021/03/24 02:25:53;;;;;;;10.00;4.75;;;7.70;99.90;;;;;;5028522;28;20257;-74
2021/03/24 02:28:20;;;;;;;8.32;5.00;;;7.70;99.90;;;;;;5027192;28;20658;-74
2021/03/24 02:30:48;;;;;;;8.68;4.72;;;7.60;99.90;;;;;;5027512;28;20060;-73
2021/03/24 02:33:24;;;;;;;7.68;4.90;;;7.60;99.90;;;;;;5028647;28;20025;-75
2021/03/24 02:35:56;;;;;;;7.25;4.85;;;7.60;99.90;;;;;;5032129;28;20049;-73
2021/03/24 02:38:28;;;;;;;5.88;3.65;;;7.60;99.90;;;;;;5025498;28;20167;-73
2021/03/24 02:40:56;;;;;;;8.48;6.93;;;7.60;99.90;;;;;;5028261;28;20045;-73
2021/03/24 02:43:23;;;;;;;9.95;4.78;;;7.60;99.90;;;;;;5029898;28;20026;-73
2021/03/24 02:45:50;;;;;;;8.73;4.55;;;7.70;99.90;;;;;;5023562;28;20034;-74
2021/03/24 02:48:21;;;;;;;9.20;5.05;;;7.70;99.90;;;;;;5032567;28;20046;-74
2021/03/24 02:50:47;;;;;;;20.52;5.50;;;7.70;99.90;;;;;;5008610;28;20475;-73
2021/03/24 02:53:14;;;;;;;8.75;4.97;;;7.70;99.90;;;;;;5021511;28;20077;-74
2021/03/24 02:55:42;;;;;;;9.73;5.30;;;7.60;99.90;;;;;;5026462;28;20041;-74
2021/03/24 02:58:10;;;;;;;11.85;5.35;;;7.60;99.90;;;;;;5036135;28;20022;-74
2021/03/24 03:00:37;;;;;;;9.43;4.40;;;7.50;99.90;;;;;;5028338;28;20025;-73
2021/03/24 03:03:30;;;;;;;11.63;4.85;;;7.60;99.90;;;;;;5033763;28;20079;-74
2021/03/24 03:05:58;;;;;;;6.88;4.75;;;7.60;99.90;;;;;;5031206;28;20025;-74
2021/03/24 03:08:33;;;;;;;8.38;5.22;;;7.50;99.90;;;;;;5019656;28;20032;-72
2021/03/24 03:11:06;;;;;;;9.15;5.00;;;7.60;99.90;;;;;;5020981;28;20090;-72
2021/03/24 03:13:34;;;;;;;13.88;5.00;;;7.60;99.90;;;;;;5041089;28;20044;-73
2021/03/24 03:16:09;;;;;;;15.43;4.63;;;7.50;99.90;;;;;;5030044;28;20041;-72
2021/03/24 03:18:55;;;;;;;7.47;4.28;;;7.50;99.90;;;;;;5045084;28;20104;-74
2021/03/24 03:21:35;;;;;;;5.78;4.35;;;7.50;99.90;;;;;;5036382;28;20433;-73
2021/03/24 03:24:05;;;;;;;6.10;4.40;;;7.50;99.90;;;;;;5027924;28;20032;-74
2021/03/24 03:26:33;;;;;;;5.90;3.90;;;7.50;99.90;;;;;;5035459;28;20033;-74
2021/03/24 03:29:07;;;;;;;9.32;4.75;;;7.50;99.90;;;;;;5033873;28;20029;-74
2021/03/24 03:31:37;;;;;;;7.65;4.03;;;7.50;99.90;;;;;;5032847;28;20261;-73
2021/03/24 03:34:06;;;;;;;7.00;4.30;;;7.50;99.90;;;;;;5031351;28;20018;-73
2021/03/24 03:36:34;;;;;;;9.32;4.35;;;7.50;99.90;;;;;;5022872;28;20090;-73
2021/03/24 03:39:01;;;;;;;8.02;4.18;;;7.50;99.90;;;;;;5030048;28;20056;-74
2021/03/24 03:41:29;;;;;;;9.65;4.32;;;7.60;99.90;;;;;;5017717;28;20142;-74
2021/03/24 03:43:55;;;;;;;8.88;3.95;;;7.60;99.90;;;;;;5029491;28;20653;-74
2021/03/24 03:46:28;;;;;;;6.05;3.75;;;7.60;99.90;;;;;;5025724;28;20389;-74
2021/03/24 03:48:54;;;;;;;8.20;4.45;;;7.50;99.90;;;;;;5022483;28;20022;-73
2021/03/24 03:52:05;;;;;;;7.70;5.85;;;7.50;99.90;;;;;;5021579;28;20113;-74
2021/03/24 03:54:35;;;;;;;10.02;4.68;;;7.50;99.90;;;;;;5017146;28;20072;-74
2021/03/24 03:57:19;;;;;;;7.28;4.32;;;7.50;99.90;;;;;;5025534;28;20060;-74
2021/03/24 04:00:18;;;;;;;7.70;4.15;;;7.40;99.90;;;;;;5024131;28;20045;-74
2021/03/24 04:03:09;;;;;;;8.20;4.10;;;7.40;99.90;;;;;;5032760;28;20507;-76
2021/03/24 04:05:48;;;;;;;5.18;4.15;;;7.30;99.90;;;;;;5014559;28;20033;-75
2021/03/24 04:08:20;;;;;;;7.93;4.38;;;7.30;99.90;;;;;;5023498;28;20087;-73
2021/03/24 04:10:53;;;;;;;12.47;4.33;;;7.30;99.90;;;;;;5028136;28;20052;-74
2021/03/24 04:13:21;;;;;;;7.18;5.15;;;7.30;99.90;;;;;;5019584;28;20471;-74
2021/03/24 04:15:50;;;;;;;5.97;4.35;;;7.30;99.90;;;;;;5026679;28;20036;-74
2021/03/24 04:18:23;;;;;;;9.05;4.18;;;7.30;99.90;;;;;;5030929;28;20041;-75
2021/03/24 04:20:50;;;;;;;8.32;4.45;;;7.40;99.90;;;;;;5025202;28;20081;-75
2021/03/24 04:23:19;;;;;;;7.68;3.97;;;7.50;99.90;;;;;;5029916;28;20021;-75
2021/03/24 04:25:50;;;;;;;9.27;4.50;;;7.40;99.90;;;;;;5018179;28;20121;-75
2021/03/24 04:28:20;;;;;;;11.77;4.60;;;7.40;99.90;;;;;;5017444;28;20034;-73
2021/03/24 04:30:58;;;;;;;7.05;4.13;;;7.40;99.90;;;;;;5019587;28;20033;-74
2021/03/24 04:33:24;;;;;;;8.95;4.38;;;7.30;99.90;;;;;;4998183;28;20073;-74
2021/03/24 04:35:51;;;;;;;4.53;3.30;;;7.40;99.90;;;;;;5017679;28;20027;-74
2021/03/24 04:38:27;;;;;;;14.35;5.32;;;7.40;99.90;;;;;;5026796;28;20021;-74
2021/03/24 04:41:06;;;;;;;11.55;4.72;;;7.40;99.90;;;;;;5027715;28;20033;-74
2021/03/24 04:43:35;;;;;;;8.85;3.92;;;7.40;99.90;;;;;;5011489;28;20030;-74
2021/03/24 04:46:11;;;;;;;6.32;5.47;;;7.30;99.90;;;;;;5026996;28;20037;-74
2021/03/24 04:48:40;;;;;;;4.82;4.13;;;7.20;99.90;;;;;;5012652;28;20034;-74
2021/03/24 04:51:17;;;;;;;6.43;4.30;;;7.10;99.90;;;;;;5009981;28;20404;-74
2021/03/24 04:53:47;;;;;;;7.57;4.10;;;7.00;99.90;;;;;;5022076;28;20087;-73
2021/03/24 04:56:16;;;;;;;7.95;5.15;;;7.00;99.90;;;;;;5020290;28;20025;-74
2021/03/24 04:58:45;;;;;;;6.35;4.05;;;6.80;99.90;;;;;;5023074;28;20022;-73
2021/03/24 05:01:21;;;;;;;7.72;4.88;;;6.80;99.90;;;;;;5024301;28;20028;-74
2021/03/24 05:03:51;;;;;;;6.07;4.68;;;6.80;99.90;;;;;;5023718;28;20080;-74
2021/03/24 05:06:21;;;;;;;8.15;4.82;;;6.80;99.90;;;;;;5032014;28;20041;-74
2021/03/24 05:08:47;;;;;;;11.93;5.57;;;6.90;99.90;;;;;;5029933;28;20017;-74
2021/03/24 05:11:39;;;;;;;7.80;5.65;;;6.80;99.90;;;;;;5021664;28;20049;-74
2021/03/24 05:14:26;;;;;;;7.80;5.00;;;6.90;99.90;;;;;;5022577;28;20030;-73
2021/03/24 05:17:16;;;;;;;14.95;5.53;;;6.80;99.90;;;;;;5017514;28;20520;-74
2021/03/24 05:19:43;;;;;;;10.60;6.13;;;6.60;99.90;;;;;;5021648;28;20072;-74
2021/03/24 05:22:28;;;;;;;11.50;5.60;;;6.40;99.90;;;;;;5002654;28;20084;-74
2021/03/24 05:25:15;;;;;;;10.23;6.80;;;6.40;99.90;;;;;;5022681;28;20072;-74
2021/03/24 05:27:51;;;;;;;11.50;6.18;;;6.20;99.90;;;;;;5036514;28;20088;-75
2021/03/24 05:30:31;;;;;;;9.85;6.18;;;6.10;99.90;;;;;;5027812;28;20057;-74
2021/03/24 05:33:18;;;;;;;8.63;6.38;;;6.10;99.90;;;;;;5016186;28;20034;-73
2021/03/24 05:35:58;;;;;;;9.55;5.57;;;6.00;99.90;;;;;;5030279;28;20037;-75
2021/03/24 05:38:46;;;;;;;8.75;5.57;;;6.10;99.90;;;;;;5007127;28;20121;-74
2021/03/24 05:41:46;;;;;;;8.68;6.35;;;6.00;99.90;;;;;;5008839;28;20033;-73
2021/03/24 05:44:42;;;;;;;9.07;5.65;;;6.20;99.90;;;;;;5026373;28;20053;-74
2021/03/24 05:47:45;;;;;;;7.38;6.20;;;6.20;99.90;;;;;;5026568;28;20118;-74
2021/03/24 05:50:13;;;;;;;;;;;6.30;99.90;;;;;;5026789;28;20423;-74
2021/03/24 05:52:54;;;;;;;15.68;6.90;;;6.50;99.90;;;;;;5026171;28;19909;-74
2021/03/24 05:55:20;;;;;;;11.68;8.18;;;6.50;99.90;;;;;;5026885;28;20124;-74
2021/03/24 05:58:09;;;;;;;14.52;7.90;;;6.40;99.90;;;;;;5028482;28;20045;-75
2021/03/24 06:00:43;;;;;;;10.68;5.95;;;6.50;99.90;;;;;;5024876;28;20042;-75
2021/03/24 06:03:43;;;;;;;9.15;6.95;;;6.60;99.90;;;;;;5021815;28;20399;-76
2021/03/24 06:06:21;;;;;;;10.95;6.68;;;6.70;99.90;;;;;;5028485;28;20044;-76
2021/03/24 06:08:59;;;;;;;12.90;7.05;;;6.80;99.90;;;;;;5023357;28;20037;-73
2021/03/24 06:11:36;;;;;;;13.13;7.75;;;6.90;99.90;;;;;;5030308;28;20022;-76
2021/03/24 06:14:21;;;;;;;10.57;6.22;;;6.90;99.90;;;;;;5027192;28;20022;-74
2021/03/24 06:17:35;;;;;;;14.30;7.60;;;7.10;99.90;;;;;;5029549;28;20045;-74
2021/03/24 06:20:19;;;;;;;30.55;7.85;;;7.20;99.90;;;;;;5026351;28;20037;-70
2021/03/24 06:23:29;;;;;;;7.68;5.22;;;7.30;99.90;;;;;;5021399;28;20029;-68
2021/03/24 06:26:20;;;;;;;17.20;7.10;;;7.50;99.90;;;;;;4990690;28;20072;-70
2021/03/24 06:29:12;;;;;;;12.10;6.22;;;7.60;99.90;;;;;;5022858;28;20026;-70
2021/03/24 06:31:56;;;;;;;9.32;5.90;;;7.70;99.90;;;;;;5029481;28;20483;-70
2021/03/24 06:35:17;;;;;;;13.65;7.40;;;7.80;99.90;;;;;;5023238;28;20038;-71
2021/03/24 06:37:54;;;;;;;11.10;5.70;;;7.90;99.90;;;;;;5019889;28;20093;-71
2021/03/24 06:40:53;;;;;;;9.82;6.28;;;8.20;99.90;;;;;;5015169;28;20034;-70
2021/03/24 06:43:30;;;;;;;11.98;4.80;;;8.30;99.90;;;;;;4983286;28;20065;-70
2021/03/24 06:46:15;;;;;;;11.52;4.00;;;8.40;99.90;;;;;;5008825;28;20119;-70
2021/03/24 06:49:25;;;;;;;9.70;3.80;;;8.50;99.90;;;;;;5010455;28;20037;-72
2021/03/24 06:52:13;;;;;;;14.73;6.03;;;8.60;99.90;;;;;;5001425;28;20064;-71
2021/03/24 06:55:16;;;;;;;8.73;5.38;;;8.70;99.90;;;;;;5019440;28;20030;-72
2021/03/24 06:57:57;;;;;;;10.27;4.90;;;8.80;99.90;;;;;;5003541;28;20522;-73
2021/03/24 07:00:47;;;;;;;8.25;4.88;;;8.90;99.90;;;;;;5022717;28;20026;-70
2021/03/24 07:03:31;;;;;;;14.57;5.35;;;9.00;99.90;;;;;;5016899;28;20029;-71
2021/03/24 07:06:07;;;;;;;8.98;4.78;;;9.10;99.90;;;;;;5032520;28;20025;-72
2021/03/24 07:08:33;;;;;;;7.13;4.15;;;9.20;99.90;;;;;;5020896;28;20040;-70
2021/03/24 07:11:22;;;;;;;12.95;7.35;;;9.20;99.90;;;;;;5018607;28;20026;-70
2021/03/24 07:13:59;;;;;;;6.05;4.60;;;9.30;99.90;;;;;;5014550;28;20056;-69
2021/03/24 07:16:48;;;;;;;8.35;4.82;;;9.40;99.90;;;;;;5008279;28;20071;-70
2021/03/24 07:19:33;;;;;;;6.72;4.95;;;9.60;99.90;;;;;;5008745;28;20046;-70
2021/03/24 07:22:17;;;;;;;13.20;4.88;;;9.80;99.90;;;;;;5017390;28;20590;-70
2021/03/24 07:24:43;;;;;;;8.85;6.15;;;9.90;99.90;;;;;;5007881;28;20499;-71
2021/03/24 07:27:29;;;;;;;16.27;5.97;;;10.10;99.90;;;;;;5014618;28;20097;-70
2021/03/24 07:29:55;;;;;;;7.47;5.85;;;10.30;99.90;;;;;;5021000;28;20017;-71
2021/03/24 07:32:37;;;;;;;10.73;5.28;;;10.20;99.90;;;;;;5021518;28;20046;-71
2021/03/24 07:35:15;;;;;;;10.25;5.82;;;10.20;99.90;;;;;;5022061;28;20113;-69
2021/03/24 07:37:55;;;;;;;11.07;6.43;;;10.40;99.90;;;;;;5020657;28;20040;-69
2021/03/24 07:40:40;;;;;;;9.07;5.50;;;10.50;99.90;;;;;;5018100;28;20021;-70
2021/03/24 07:43:32;;;;;;;13.65;5.15;;;10.50;99.90;;;;;;5022541;28;20534;-69
2021/03/24 07:46:07;;;;;;;11.40;5.63;;;10.60;99.90;;;;;;5018990;28;20026;-71
2021/03/24 07:48:44;;;;;;;8.52;6.25;;;10.60;99.90;;;;;;5022019;28;20040;-71
2021/03/24 07:51:47;;;;;;;9.13;5.60;;;10.80;99.90;;;;;;5021795;28;20022;-71
2021/03/24 07:54:37;;;;;;;16.52;6.57;;;10.80;99.90;;;;;;5022089;28;20112;-71
2021/03/24 07:57:17;;;;;;;7.03;5.55;;;10.80;99.90;;;;;;5024863;28;20029;-70
2021/03/24 08:00:17;;;;;;;12.63;7.97;;;10.80;99.90;;;;;;5014535;28;20040;-70
2021/03/24 08:03:12;;;;;;;20.33;8.55;;;10.70;99.90;;;;;;5018298;28;20502;-71
2021/03/24 08:06:11;;;;;;;35.60;13.52;;;10.70;99.90;;;;;;5017104;28;20508;-72
2021/03/24 08:09:11;;;;;;;31.60;13.93;;;10.80;99.90;;;;;;5022551;28;20087;-71
2021/03/24 08:12:23;;;;;;;11.70;6.35;;;10.70;99.90;;;;;;5017638;28;20026;-70
2021/03/24 08:14:59;;;;;;;11.95;4.15;;;10.70;99.90;;;;;;5018889;28;20026;-72
2021/03/24 08:17:49;;;;;;;10.40;4.38;;;10.70;99.90;;;;;;5019639;28;20048;-71
2021/03/24 08:20:37;;;;;;;11.77;5.00;;;10.60;99.90;;;;;;5027445;28;20041;-70
2021/03/24 08:23:55;;;;;;;19.25;6.18;;;10.60;99.90;;;;;;5039598;28;20030;-71
2021/03/24 08:26:41;;;;;;;9.80;5.07;;;10.60;99.90;;;;;;4990612;28;20088;-72
2021/03/24 08:29:06;;;;;;;10.93;5.57;;;10.60;99.90;;;;;;5021503;28;20041;-70
2021/03/24 08:32:37;;;;;;;19.95;5.53;;;10.70;99.90;;;;;;5020856;28;20519;-70
2021/03/24 08:35:40;;;;;;;11.35;5.65;;;10.80;99.90;;;;;;4943294;29;20024;-70
2021/03/24 08:38:31;;;;;;;6.82;4.03;;;10.90;99.90;;;;;;4898491;29;20047;-70
2021/03/24 08:41:27;;;;;;;11.20;4.25;;;11.00;99.90;;;;;;5015677;28;20029;-71
2021/03/24 08:44:17;;;;;;;6.28;3.03;;;11.00;99.90;;;;;;5021262;28;20105;-70
2021/03/24 08:46:55;;;;;;;7.70;5.03;;;11.00;99.90;;;;;;5019224;28;20057;-71
2021/03/24 08:49:25;;;;;;;9.23;5.07;;;11.00;99.90;;;;;;5019042;28;20054;-70
2021/03/24 08:51:51;;;;;;;6.63;4.95;;;11.00;99.90;;;;;;5018471;28;20488;-71
2021/03/24 08:54:41;;;;;;;10.93;5.43;;;11.10;99.90;;;;;;5017545;28;20120;-71
2021/03/24 08:57:34;;;;;;;8.43;3.85;;;11.10;99.90;;;;;;5020053;28;20072;-70
2021/03/24 09:00:13;;;;;;;;;;;11.10;99.90;;;;;;5019396;28;20037;-70
2021/03/24 09:02:48;;;;;;;5.20;4.43;;;11.10;99.90;;;;;;5018080;28;20012;-69
2021/03/24 09:05:35;;;;;;;10.02;4.60;;;11.00;99.90;;;;;;5020648;28;20489;-69
2021/03/24 09:08:53;;;;;;;10.68;5.15;;;11.00;99.90;;;;;;5019003;28;20037;-69
2021/03/24 09:11:37;;;;;;;6.70;3.67;;;11.00;99.90;;;;;;4966190;28;20072;-70
2021/03/24 09:14:15;;;;;;;9.48;4.53;;;11.00;99.90;;;;;;5032043;28;20071;-70
2021/03/24 09:17:04;;;;;;;10.15;4.43;;;11.00;99.90;;;;;;5026877;28;20026;-69
2021/03/24 09:20:07;;;;;;;5.78;4.50;;;11.10;99.90;;;;;;5019447;28;20034;-70
2021/03/24 09:23:06;;;;;;;7.10;4.22;;;11.10;99.90;;;;;;5019538;28;20029;-69
2021/03/24 09:25:58;;;;;;;9.50;5.35;;;11.00;99.90;;;;;;5021165;28;20022;-70
2021/03/24 09:28:53;;;;;;;8.18;4.65;;;11.10;99.90;;;;;;5018893;28;20519;-70
2021/03/24 09:31:47;;;;;;;9.88;4.43;;;11.20;99.90;;;;;;5022677;28;20071;-68
2021/03/24 09:34:21;;;;;;;6.88;3.88;;;11.10;99.90;;;;;;5034943;28;20386;-70
2021/03/24 09:36:47;;;;;;;13.57;5.25;;;11.10;99.90;;;;;;5029652;28;20059;-69
2021/03/24 09:39:34;;;;;;;7.88;5.05;;;11.20;99.90;;;;;;5017941;28;20085;-73
2021/03/24 09:42:11;;;;;;;5.70;4.45;;;11.20;99.90;;;;;;5019488;28;20040;-70
2021/03/24 09:44:43;;;;;;;7.93;4.28;;;11.30;99.90;;;;;;5027960;28;20025;-71
2021/03/24 09:47:50;;;;;;;6.38;4.00;;;11.30;99.90;;;;;;5027259;28;20057;-72
2021/03/24 09:50:19;;;;;;;5.85;4.43;;;11.40;99.90;;;;;;4956092;28;20027;-69
2021/03/24 09:52:57;;;;;;;11.38;5.20;;;11.40;99.90;;;;;;4956600;28;20070;-69
2021/03/24 09:55:38;;;;;;;10.75;5.45;;;11.40;99.90;;;;;;4993893;28;20049;-70
2021/03/24 09:58:22;;;;;;;10.32;3.83;;;11.30;99.90;;;;;;5031160;28;20030;-71
2021/03/24 10:01:16;;;;;;;6.72;4.50;;;11.40;99.90;;;;;;5019067;28;20026;-71
2021/03/24 10:04:09;;;;;;;8.30;4.50;;;11.40;99.90;;;;;;5027397;28;20475;-70
2021/03/24 10:06:50;;;;;;;7.55;4.93;;;11.40;99.90;;;;;;5015998;28;20112;-73
2021/03/24 10:09:34;;;;;;;10.13;5.03;;;11.40;99.90;;;;;;5042617;28;20061;-71
2021/03/24 10:12:08;;;;;;;8.15;5.13;;;11.50;99.90;;;;;;5042076;28;20021;-71
2021/03/24 10:15:00;;;;;;;7.15;4.53;;;11.50;99.90;;;;;;5042127;28;20029;-72
2021/03/24 10:17:34;;;;;;;6.68;5.55;;;11.60;99.90;;;;;;5027799;28;20021;-71
2021/03/24 10:20:29;;;;;;;13.60;5.47;;;11.50;99.90;;;;;;5027938;28;20041;-70
2021/03/24 10:23:21;;;;;;;8.00;4.78;;;11.50;99.90;;;;;;5026518;28;20403;-71
2021/03/24 10:25:50;;;;;;;15.23;5.00;;;11.50;99.90;;;;;;5012642;28;20025;-70
2021/03/24 10:28:34;;;;;;;12.32;5.22;;;11.60;99.90;;;;;;5015814;28;20137;-69
2021/03/24 10:31:33;;;;;;;5.38;4.45;;;11.60;99.90;;;;;;5016050;28;20033;-70
2021/03/24 10:34:06;;;;;;;9.30;5.93;;;11.50;99.90;;;;;;4998154;28;20446;-69
2021/03/24 10:36:42;;;;;;;9.77;7.40;;;11.50;99.90;;;;;;5015369;28;20029;-69
2021/03/24 10:39:33;;;;;;;10.20;6.43;;;11.60;99.90;;;;;;5015317;28;20033;-69
2021/03/24 10:42:04;;;;;;;8.20;5.20;;;11.60;99.90;;;;;;5014471;28;20050;-70
2021/03/24 10:44:48;;;;;;;8.23;4.88;;;11.60;99.90;;;;;;5015033;28;20033;-70
2021/03/24 10:47:38;;;;;;;8.23;5.18;;;11.60;99.90;;;;;;5001241;28;20085;-69
2021/03/24 10:50:19;;;;;;;8.75;4.82;;;11.60;99.90;;;;;;5014464;28;20037;-68
2021/03/24 10:53:11;;;;;;;7.22;4.90;;;11.80;99.90;;;;;;5014420;28;20537;-71
2021/03/24 10:55:40;;;;;;;7.50;4.75;;;11.70;99.90;;;;;;5014335;28;20026;-70
2021/03/24 10:58:30;;;;;;;6.38;4.45;;;11.70;99.90;;;;;;5014664;28;20062;-71
2021/03/24 11:01:11;;;;;;;7.88;4.80;;;11.70;99.90;;;;;;5014204;28;20021;-71
2021/03/24 11:04:04;;;;;;;9.27;6.10;;;11.70;99.90;;;;;;5014677;28;20026;-70
2021/03/24 11:06:36;;;;;;;13.25;5.90;;;11.60;99.90;;;;;;5013883;28;20437;-71
2021/03/24 11:09:15;;;;;;;5.68;4.88;;;11.70;99.90;;;;;;5015524;28;20563;-71
2021/03/24 11:11:49;;;;;;;9.90;4.68;;;11.80;99.90;;;;;;5013142;28;20522;-70
2021/03/24 11:14:20;;;;;;;11.13;8.27;;;11.80;99.90;;;;;;5012920;28;20050;-69
2021/03/24 11:17:11;;;;;;;7.45;5.60;;;11.70;99.90;;;;;;5012817;28;20030;-70
2021/03/24 11:19:48;;;;;;;15.65;5.85;;;11.80;99.90;;;;;;5012787;28;20501;-67
2021/03/24 11:22:14;;;;;;;8.52;5.05;;;11.70;99.90;;;;;;5012952;28;20172;-70
2021/03/24 11:24:49;;;;;;;10.52;5.55;;;11.70;99.90;;;;;;5013147;28;20531;-70
2021/03/24 11:27:43;;;;;;;9.07;5.22;;;11.70;99.90;;;;;;5013588;28;20104;-70
2021/03/24 11:30:15;;;;;;;11.18;6.47;;;11.70;99.90;;;;;;5001711;28;20050;-71
2021/03/24 11:32:56;;;;;;;8.75;4.60;;;11.60;99.90;;;;;;5013201;28;20026;-70
2021/03/24 11:35:46;;;;;;;11.40;5.55;;;11.60;99.90;;;;;;5013182;28;20096;-70
2021/03/24 11:38:35;;;;;;;11.80;5.43;;;11.80;99.90;;;;;;4999507;28;20092;-69
2021/03/24 11:41:11;;;;;;;7.13;5.57;;;11.80;99.90;;;;;;5006474;28;20084;-70
2021/03/24 11:43:41;;;;;;;8.32;5.47;;;11.90;99.90;;;;;;5012750;28;20053;-69
2021/03/24 11:46:13;;;;;;;9.55;5.85;;;11.90;99.90;;;;;;5012458;28;20034;-69
2021/03/24 11:48:42;;;;;;;13.88;6.05;;;12.00;99.90;;;;;;5012444;28;20076;-67
2021/03/24 11:51:24;;;;;;;9.52;4.80;;;12.00;99.90;;;;;;4997720;28;20145;-71
2021/03/24 11:54:22;;;;;;;6.53;5.10;;;12.00;99.90;;;;;;5028991;28;20122;-71
2021/03/24 11:57:06;;;;;;;10.32;6.82;;;12.10;99.90;;;;;;5016255;28;20052;-70
2021/03/24 11:59:50;;;;;;;6.15;4.82;;;12.30;99.90;;;;;;5012437;28;20092;-70
2021/03/24 12:02:22;;;;;;;9.10;4.80;;;12.10;99.90;;;;;;5012749;28;20087;-70
2021/03/24 12:05:03;;;;;;;12.83;5.40;;;12.00;99.90;;;;;;5012622;28;20041;-69
2021/03/24 12:07:35;;;;;;;8.73;5.17;;;12.00;99.90;;;;;;5012406;28;20794;-71
2021/03/24 12:10:23;;;;;;;11.27;5.38;;;11.90;99.90;;;;;;5012387;28;20061;-68
2021/03/24 12:13:10;;;;;;;7.03;4.75;;;11.90;99.90;;;;;;5012578;28;20500;-70
2021/03/24 12:15:38;;;;;;;14.07;6.20;;;11.90;99.90;;;;;;5012806;28;20023;-69
2021/03/24 12:18:22;;;;;;;8.32;5.00;;;11.90;99.90;;;;;;5012941;28;20026;-69
2021/03/24 12:20:56;;;;;;;5.82;5.22;;;11.90;99.90;;;;;;5011824;28;20044;-69
2021/03/24 12:23:23;;;;;;;7.00;4.82;;;11.90;99.90;;;;;;5016965;28;20021;-69
2021/03/24 12:25:55;;;;;;;7.85;4.72;;;11.90;99.90;;;;;;5018652;28;20079;-70
2021/03/24 12:28:34;;;;;;;7.82;6.00;;;11.90;99.90;;;;;;5010250;28;20531;-70
2021/03/24 12:31:18;;;;;;;6.75;5.03;;;11.90;99.90;;;;;;5012081;28;20030;-70
2021/03/24 12:33:57;;;;;;;7.55;4.78;;;12.00;99.90;;;;;;5011999;28;20110;-72
2021/03/24 12:36:26;;;;;;;8.73;6.30;;;12.00;99.90;;;;;;5011717;28;20032;-70
2021/03/24 12:39:00;;;;;;;12.88;6.45;;;11.90;99.90;;;;;;5018492;28;20026;-69
2021/03/24 12:41:38;;;;;;;7.60;5.53;;;11.90;99.90;;;;;;5018907;28;20317;-70
2021/03/24 12:44:13;;;;;;;7.18;5.00;;;11.90;99.90;;;;;;5004354;28;20126;-71
2021/03/24 12:46:53;;;;;;;11.48;6.20;;;11.90;99.90;;;;;;5011983;28;20023;-69
2021/03/24 12:49:25;;;;;;;8.80;5.38;;;11.90;99.90;;;;;;5014693;28;20484;-71
2021/03/24 12:52:07;;;;;;;13.63;5.50;;;12.00;99.90;;;;;;5031861;28;20032;-71
2021/03/24 12:54:32;;;;;;;9.10;5.22;;;12.00;99.90;;;;;;5032849;28;20041;-70
2021/03/24 12:57:38;;;;;;;6.40;5.53;;;11.90;99.90;;;;;;4996124;28;20030;-70
2021/03/24 13:00:25;;;;;;;10.85;5.63;;;12.00;99.90;;;;;;5013411;28;20033;-72
2021/03/24 13:03:00;;;;;;;10.93;5.55;;;12.00;99.90;;;;;;5011913;28;20145;-70
2021/03/24 13:05:47;;;;;;;8.18;5.43;;;12.00;99.90;;;;;;5011363;28;20105;-72
2021/03/24 13:08:15;;;;;;;14.07;7.03;;;12.20;99.90;;;;;;5011210;28;20109;-69
2021/03/24 13:10:47;;;;;;;14.68;7.10;;;12.10;99.90;;;;;;5011644;28;20022;-71
2021/03/24 13:13:50;;;;;;;9.10;5.15;;;12.00;99.90;;;;;;5009680;28;20514;-69
2021/03/24 13:16:18;;;;;;;10.77;5.82;;;12.00;99.90;;;;;;5011234;28;20034;-70
2021/03/24 13:18:57;;;;;;;6.50;5.70;;;12.00;99.90;;;;;;5020357;28;20029;-69
2021/03/24 13:21:40;;;;;;;10.35;5.65;;;12.10;99.90;;;;;;5030484;28;20025;-69
2021/03/24 13:24:44;;;;;;;10.80;5.55;;;12.10;99.90;;;;;;5031622;28;20567;-70
2021/03/24 13:27:30;;;;;;;8.95;6.13;;;12.00;99.90;;;;;;5012953;28;20029;-73
2021/03/24 13:30:14;;;;;;;12.27;6.95;;;11.90;99.90;;;;;;5012769;28;20021;-71
2021/03/24 13:32:48;;;;;;;12.32;6.30;;;12.20;99.90;;;;;;5017981;28;20026;-72
2021/03/24 13:35:38;;;;;;;11.07;6.47;;;12.30;99.90;;;;;;5030572;28;20025;-71
2021/03/24 13:38:04;;;;;;;14.25;6.78;;;12.40;99.90;;;;;;5016483;28;20141;-69
2021/03/24 13:40:33;;;;;;;10.13;6.10;;;12.40;99.90;;;;;;5011050;28;20104;-70
2021/03/24 13:43:12;;;;;;;11.25;6.65;;;12.50;99.90;;;;;;5011325;28;20030;-71
2021/03/24 13:45:47;;;;;;;432.23;370.77;;;12.40;99.90;;;;;;5012228;28;20157;-72
2021/03/24 13:48:33;;;;;;;12.07;6.82;;;12.40;99.90;;;;;;5012544;28;20717;-74